sensor_id;sensor_type;location;lat;lon;timestamp;P1;durP1;ratioP1;P2;durP2;ratioP2
25301;SDS011;13243;50.888;4.724;2023-04-24T00:02:24;24.80;;;10.77;;
25301;SDS011;13243;50.888;4.724;2023-04-24T00:07:27;28.38;;;9.85;;
25301;SDS011;13243;50.888;4.724;2023-04-24T00:12:29;21.83;;;10.48;;
25301;SDS011;13243;50.888;4.724;2023-04-24T00:17:31;26.00;;;10.35;;
25301;SDS011;13243;50.888;4.724;2023-04-24T00:22:33;19.38;;;10.85;;
25301;SDS011;13243;50.888;4.724;2023-04-24T00:27:35;22.13;;;10.88;;
25301;SDS011;13243;50.888;4.724;2023-04-24T00:32:38;18.55;;;10.13;;
25301;SDS011;13243;50.888;4.724;2023-04-24T00:37:40;20.30;;;10.00;;
25301;SDS011;13243;50.888;4.724;2023-04-24T00:42:43;23.27;;;10.55;;
25301;SDS011;13243;50.888;4.724;2023-04-24T00:47:45;19.02;;;11.27;;
25301;SDS011;13243;50.888;4.724;2023-04-24T00:52:47;24.67;;;11.40;;
25301;SDS011;13243;50.888;4.724;2023-04-24T00:57:50;22.83;;;11.35;;
25301;SDS011;13243;50.888;4.724;2023-04-24T01:02:52;22.63;;;10.65;;
25301;SDS011;13243;50.888;4.724;2023-04-24T01:07:54;23.70;;;11.38;;
25301;SDS011;13243;50.888;4.724;2023-04-24T01:12:57;19.83;;;10.27;;
25301;SDS011;13243;50.888;4.724;2023-04-24T01:18:00;22.88;;;10.75;;
25301;SDS011;13243;50.888;4.724;2023-04-24T01:23:02;24.98;;;10.68;;
25301;SDS011;13243;50.888;4.724;2023-04-24T01:28:04;22.38;;;10.15;;
25301;SDS011;13243;50.888;4.724;2023-04-24T01:33:06;28.92;;;11.23;;
25301;SDS011;13243;50.888;4.724;2023-04-24T01:38:08;24.75;;;10.80;;
25301;SDS011;13243;50.888;4.724;2023-04-24T01:43:09;13.55;;;8.80;;
25301;SDS011;13243;50.888;4.724;2023-04-24T01:48:12;18.08;;;8.40;;
25301;SDS011;13243;50.888;4.724;2023-04-24T01:53:15;17.70;;;8.90;;
25301;SDS011;13243;50.888;4.724;2023-04-24T01:58:16;17.65;;;9.80;;
25301;SDS011;13243;50.888;4.724;2023-04-24T02:03:18;15.60;;;8.40;;
25301;SDS011;13243;50.888;4.724;2023-04-24T02:08:20;16.30;;;8.63;;
25301;SDS011;13243;50.888;4.724;2023-04-24T02:13:22;13.43;;;7.88;;
25301;SDS011;13243;50.888;4.724;2023-04-24T02:18:24;16.00;;;8.77;;
25301;SDS011;13243;50.888;4.724;2023-04-24T02:23:26;11.60;;;8.02;;
25301;SDS011;13243;50.888;4.724;2023-04-24T02:28:28;19.05;;;8.95;;
25301;SDS011;13243;50.888;4.724;2023-04-24T02:33:30;19.52;;;9.73;;
25301;SDS011;13243;50.888;4.724;2023-04-24T02:38:33;21.58;;;9.63;;
25301;SDS011;13243;50.888;4.724;2023-04-24T02:43:35;17.60;;;10.50;;
25301;SDS011;13243;50.888;4.724;2023-04-24T02:48:37;28.05;;;11.68;;
25301;SDS011;13243;50.888;4.724;2023-04-24T02:53:38;16.55;;;9.80;;
25301;SDS011;13243;50.888;4.724;2023-04-24T02:58:40;21.75;;;10.90;;
25301;SDS011;13243;50.888;4.724;2023-04-24T03:03:43;19.13;;;9.73;;
25301;SDS011;13243;50.888;4.724;2023-04-24T03:08:45;20.13;;;9.45;;
25301;SDS011;13243;50.888;4.724;2023-04-24T03:13:47;15.63;;;9.43;;
25301;SDS011;13243;50.888;4.724;2023-04-24T03:18:49;18.85;;;9.25;;
25301;SDS011;13243;50.888;4.724;2023-04-24T03:23:51;12.63;;;8.70;;
25301;SDS011;13243;50.888;4.724;2023-04-24T03:28:53;16.73;;;8.55;;
25301;SDS011;13243;50.888;4.724;2023-04-24T03:33:55;14.15;;;8.40;;
25301;SDS011;13243;50.888;4.724;2023-04-24T03:38:56;19.00;;;8.18;;
25301;SDS011;13243;50.888;4.724;2023-04-24T03:43:58;15.18;;;7.60;;
25301;SDS011;13243;50.888;4.724;2023-04-24T03:49:01;12.18;;;7.82;;
25301;SDS011;13243;50.888;4.724;2023-04-24T03:54:03;14.32;;;7.57;;
25301;SDS011;13243;50.888;4.724;2023-04-24T03:59:06;14.88;;;7.80;;
25301;SDS011;13243;50.888;4.724;2023-04-24T04:04:08;13.25;;;7.85;;
25301;SDS011;13243;50.888;4.724;2023-04-24T04:09:10;12.52;;;6.35;;
25301;SDS011;13243;50.888;4.724;2023-04-24T04:14:12;9.70;;;6.13;;
25301;SDS011;13243;50.888;4.724;2023-04-24T04:19:13;9.65;;;5.90;;
25301;SDS011;13243;50.888;4.724;2023-04-24T04:24:15;13.35;;;6.00;;
25301;SDS011;13243;50.888;4.724;2023-04-24T04:29:17;10.25;;;5.80;;
25301;SDS011;13243;50.888;4.724;2023-04-24T04:34:19;8.93;;;5.05;;
25301;SDS011;13243;50.888;4.724;2023-04-24T04:39:21;9.45;;;4.97;;
25301;SDS011;13243;50.888;4.724;2023-04-24T04:44:23;10.73;;;4.47;;
25301;SDS011;13243;50.888;4.724;2023-04-24T04:49:25;7.78;;;4.57;;
25301;SDS011;13243;50.888;4.724;2023-04-24T04:54:29;9.35;;;4.65;;
25301;SDS011;13243;50.888;4.724;2023-04-24T04:59:31;7.10;;;4.50;;
25301;SDS011;13243;50.888;4.724;2023-04-24T05:04:33;10.98;;;5.95;;
25301;SDS011;13243;50.888;4.724;2023-04-24T05:09:35;10.82;;;6.30;;
25301;SDS011;13243;50.888;4.724;2023-04-24T05:14:37;16.30;;;6.80;;
25301;SDS011;13243;50.888;4.724;2023-04-24T05:19:39;15.25;;;7.90;;
25301;SDS011;13243;50.888;4.724;2023-04-24T05:24:41;18.58;;;8.02;;
25301;SDS011;13243;50.888;4.724;2023-04-24T05:29:43;14.18;;;7.57;;
25301;SDS011;13243;50.888;4.724;2023-04-24T05:34:46;16.00;;;8.23;;
25301;SDS011;13243;50.888;4.724;2023-04-24T05:39:48;14.52;;;7.88;;
25301;SDS011;13243;50.888;4.724;2023-04-24T05:44:50;12.90;;;7.72;;
25301;SDS011;13243;50.888;4.724;2023-04-24T05:49:53;16.10;;;7.63;;
25301;SDS011;13243;50.888;4.724;2023-04-24T05:54:55;16.05;;;8.50;;
25301;SDS011;13243;50.888;4.724;2023-04-24T05:59:57;15.23;;;8.60;;
25301;SDS011;13243;50.888;4.724;2023-04-24T06:04:59;17.00;;;8.13;;
25301;SDS011;13243;50.888;4.724;2023-04-24T06:10:01;15.77;;;8.20;;
25301;SDS011;13243;50.888;4.724;2023-04-24T06:15:03;22.17;;;8.68;;
25301;SDS011;13243;50.888;4.724;2023-04-24T06:20:06;20.65;;;9.88;;
25301;SDS011;13243;50.888;4.724;2023-04-24T06:25:09;15.25;;;8.50;;
25301;SDS011;13243;50.888;4.724;2023-04-24T06:30:11;20.77;;;10.23;;
25301;SDS011;13243;50.888;4.724;2023-04-24T06:35:13;17.92;;;9.70;;
25301;SDS011;13243;50.888;4.724;2023-04-24T06:40:15;18.25;;;11.30;;
25301;SDS011;13243;50.888;4.724;2023-04-24T06:45:19;22.27;;;11.43;;
25301;SDS011;13243;50.888;4.724;2023-04-24T06:50:21;24.42;;;10.30;;
25301;SDS011;13243;50.888;4.724;2023-04-24T06:55:23;21.20;;;10.90;;
25301;SDS011;13243;50.888;4.724;2023-04-24T07:00:25;25.67;;;10.73;;
25301;SDS011;13243;50.888;4.724;2023-04-24T07:05:26;21.63;;;11.10;;
25301;SDS011;13243;50.888;4.724;2023-04-24T07:10:29;32.70;;;12.80;;
25301;SDS011;13243;50.888;4.724;2023-04-24T07:15:31;26.38;;;11.82;;
25301;SDS011;13243;50.888;4.724;2023-04-24T07:20:33;25.38;;;12.38;;
25301;SDS011;13243;50.888;4.724;2023-04-24T07:25:35;26.00;;;11.18;;
25301;SDS011;13243;50.888;4.724;2023-04-24T07:30:37;29.40;;;11.68;;
25301;SDS011;13243;50.888;4.724;2023-04-24T07:35:39;26.27;;;11.85;;
25301;SDS011;13243;50.888;4.724;2023-04-24T07:40:41;32.05;;;11.85;;
25301;SDS011;13243;50.888;4.724;2023-04-24T07:45:43;32.40;;;13.35;;
25301;SDS011;13243;50.888;4.724;2023-04-24T07:50:45;25.70;;;12.23;;
25301;SDS011;13243;50.888;4.724;2023-04-24T07:55:47;25.88;;;12.80;;
25301;SDS011;13243;50.888;4.724;2023-04-24T08:00:50;27.23;;;12.73;;
25301;SDS011;13243;50.888;4.724;2023-04-24T08:05:52;18.85;;;11.00;;
25301;SDS011;13243;50.888;4.724;2023-04-24T08:10:54;30.52;;;11.90;;
25301;SDS011;13243;50.888;4.724;2023-04-24T08:15:56;23.40;;;10.85;;
25301;SDS011;13243;50.888;4.724;2023-04-24T08:20:58;23.13;;;10.73;;
25301;SDS011;13243;50.888;4.724;2023-04-24T08:26:02;23.98;;;9.38;;
25301;SDS011;13243;50.888;4.724;2023-04-24T08:31:04;17.90;;;7.45;;
25301;SDS011;13243;50.888;4.724;2023-04-24T08:36:06;19.58;;;7.45;;
25301;SDS011;13243;50.888;4.724;2023-04-24T08:41:08;17.95;;;7.95;;
25301;SDS011;13243;50.888;4.724;2023-04-24T08:46:11;15.13;;;7.53;;
25301;SDS011;13243;50.888;4.724;2023-04-24T08:51:14;18.52;;;8.10;;
25301;SDS011;13243;50.888;4.724;2023-04-24T08:56:16;14.45;;;8.23;;
25301;SDS011;13243;50.888;4.724;2023-04-24T09:01:19;19.38;;;8.80;;
25301;SDS011;13243;50.888;4.724;2023-04-24T09:06:21;17.55;;;7.43;;
25301;SDS011;13243;50.888;4.724;2023-04-24T09:11:24;18.20;;;6.63;;
25301;SDS011;13243;50.888;4.724;2023-04-24T09:16:27;15.98;;;5.78;;
25301;SDS011;13243;50.888;4.724;2023-04-24T09:21:33;16.63;;;6.00;;
25301;SDS011;13243;50.888;4.724;2023-04-24T09:26:36;16.55;;;5.47;;
25301;SDS011;13243;50.888;4.724;2023-04-24T09:31:38;21.77;;;6.80;;
25301;SDS011;13243;50.888;4.724;2023-04-24T09:36:41;15.68;;;5.47;;
25301;SDS011;13243;50.888;4.724;2023-04-24T09:41:44;13.20;;;4.88;;
25301;SDS011;13243;50.888;4.724;2023-04-24T09:47:04;13.75;;;5.57;;
25301;SDS011;13243;50.888;4.724;2023-04-24T09:52:11;10.40;;;4.70;;
25301;SDS011;13243;50.888;4.724;2023-04-24T09:57:14;10.52;;;4.43;;
25301;SDS011;13243;50.888;4.724;2023-04-24T10:02:16;8.05;;;4.13;;
25301;SDS011;13243;50.888;4.724;2023-04-24T10:07:22;14.98;;;3.85;;
25301;SDS011;13243;50.888;4.724;2023-04-24T10:12:27;7.53;;;3.30;;
25301;SDS011;13243;50.888;4.724;2023-04-24T10:17:30;8.43;;;3.55;;
25301;SDS011;13243;50.888;4.724;2023-04-24T10:22:32;9.93;;;3.72;;
25301;SDS011;13243;50.888;4.724;2023-04-24T10:27:34;11.18;;;3.65;;
25301;SDS011;13243;50.888;4.724;2023-04-24T10:32:38;7.95;;;3.83;;
25301;SDS011;13243;50.888;4.724;2023-04-24T10:37:42;8.98;;;3.45;;
25301;SDS011;13243;50.888;4.724;2023-04-24T10:42:51;12.85;;;3.90;;
25301;SDS011;13243;50.888;4.724;2023-04-24T10:47:59;7.63;;;3.28;;
25301;SDS011;13243;50.888;4.724;2023-04-24T10:53:06;8.25;;;3.85;;
25301;SDS011;13243;50.888;4.724;2023-04-24T10:58:13;14.55;;;4.00;;
25301;SDS011;13243;50.888;4.724;2023-04-24T11:03:24;9.77;;;3.33;;
25301;SDS011;13243;50.888;4.724;2023-04-24T11:08:32;6.60;;;3.35;;
25301;SDS011;13243;50.888;4.724;2023-04-24T11:19:02;6.05;;;3.65;;
25301;SDS011;13243;50.888;4.724;2023-04-24T11:24:21;9.23;;;4.38;;
25301;SDS011;13243;50.888;4.724;2023-04-24T11:34:59;7.50;;;3.70;;
25301;SDS011;13243;50.888;4.724;2023-04-24T11:40:09;11.05;;;3.70;;
25301;SDS011;13243;50.888;4.724;2023-04-24T11:45:16;12.98;;;3.67;;
25301;SDS011;13243;50.888;4.724;2023-04-24T11:50:21;4.93;;;3.30;;
25301;SDS011;13243;50.888;4.724;2023-04-24T11:55:27;8.20;;;3.95;;
25301;SDS011;13243;50.888;4.724;2023-04-24T12:00:31;7.18;;;3.92;;
25301;SDS011;13243;50.888;4.724;2023-04-24T12:05:35;12.15;;;3.80;;
25301;SDS011;13243;50.888;4.724;2023-04-24T12:10:38;9.25;;;4.03;;
25301;SDS011;13243;50.888;4.724;2023-04-24T12:15:39;10.23;;;3.45;;
25301;SDS011;13243;50.888;4.724;2023-04-24T12:20:42;7.03;;;3.83;;
25301;SDS011;13243;50.888;4.724;2023-04-24T12:25:44;5.03;;;3.17;;
25301;SDS011;13243;50.888;4.724;2023-04-24T12:30:49;8.02;;;3.65;;
25301;SDS011;13243;50.888;4.724;2023-04-24T12:35:51;7.78;;;3.88;;
25301;SDS011;13243;50.888;4.724;2023-04-24T12:41:05;8.30;;;3.83;;
25301;SDS011;13243;50.888;4.724;2023-04-24T12:46:08;8.75;;;3.38;;
25301;SDS011;13243;50.888;4.724;2023-04-24T12:51:10;8.57;;;3.40;;
25301;SDS011;13243;50.888;4.724;2023-04-24T12:56:12;6.72;;;2.90;;
25301;SDS011;13243;50.888;4.724;2023-04-24T13:01:13;7.38;;;3.20;;
25301;SDS011;13243;50.888;4.724;2023-04-24T13:06:15;6.93;;;3.33;;
25301;SDS011;13243;50.888;4.724;2023-04-24T13:11:17;3.72;;;2.75;;
25301;SDS011;13243;50.888;4.724;2023-04-24T13:16:19;9.10;;;3.60;;
25301;SDS011;13243;50.888;4.724;2023-04-24T13:21:21;7.03;;;3.33;;
25301;SDS011;13243;50.888;4.724;2023-04-24T13:26:23;8.07;;;3.65;;
25301;SDS011;13243;50.888;4.724;2023-04-24T13:31:25;5.72;;;2.83;;
25301;SDS011;13243;50.888;4.724;2023-04-24T13:36:27;5.35;;;3.30;;
25301;SDS011;13243;50.888;4.724;2023-04-24T13:41:29;5.15;;;3.00;;
25301;SDS011;13243;50.888;4.724;2023-04-24T13:46:31;7.25;;;2.97;;
25301;SDS011;13243;50.888;4.724;2023-04-24T13:51:33;4.20;;;2.42;;
25301;SDS011;13243;50.888;4.724;2023-04-24T13:56:35;8.73;;;2.78;;
25301;SDS011;13243;50.888;4.724;2023-04-24T14:01:37;7.18;;;2.60;;
25301;SDS011;13243;50.888;4.724;2023-04-24T14:06:39;5.10;;;2.38;;
25301;SDS011;13243;50.888;4.724;2023-04-24T14:11:41;7.57;;;2.40;;
25301;SDS011;13243;50.888;4.724;2023-04-24T14:16:43;4.60;;;1.95;;
25301;SDS011;13243;50.888;4.724;2023-04-24T14:21:45;6.32;;;2.45;;
25301;SDS011;13243;50.888;4.724;2023-04-24T14:26:46;8.50;;;2.22;;
25301;SDS011;13243;50.888;4.724;2023-04-24T14:31:48;6.97;;;1.90;;
25301;SDS011;13243;50.888;4.724;2023-04-24T14:36:51;4.32;;;2.30;;
25301;SDS011;13243;50.888;4.724;2023-04-24T14:41:53;6.45;;;1.77;;
25301;SDS011;13243;50.888;4.724;2023-04-24T14:46:56;4.00;;;1.95;;
25301;SDS011;13243;50.888;4.724;2023-04-24T14:51:58;3.50;;;1.70;;
25301;SDS011;13243;50.888;4.724;2023-04-24T14:57:00;7.13;;;1.95;;
25301;SDS011;13243;50.888;4.724;2023-04-24T15:02:02;5.68;;;2.72;;
25301;SDS011;13243;50.888;4.724;2023-04-24T15:07:16;6.13;;;2.38;;
25301;SDS011;13243;50.888;4.724;2023-04-24T15:12:18;7.90;;;3.08;;
25301;SDS011;13243;50.888;4.724;2023-04-24T15:17:19;5.88;;;2.22;;
25301;SDS011;13243;50.888;4.724;2023-04-24T15:22:21;4.93;;;2.50;;
25301;SDS011;13243;50.888;4.724;2023-04-24T15:27:23;4.35;;;2.47;;
25301;SDS011;13243;50.888;4.724;2023-04-24T15:32:25;9.38;;;2.38;;
25301;SDS011;13243;50.888;4.724;2023-04-24T15:37:27;5.15;;;2.40;;
25301;SDS011;13243;50.888;4.724;2023-04-24T15:42:29;2.78;;;1.92;;
25301;SDS011;13243;50.888;4.724;2023-04-24T15:47:31;7.65;;;2.10;;
25301;SDS011;13243;50.888;4.724;2023-04-24T15:52:33;5.10;;;2.05;;
25301;SDS011;13243;50.888;4.724;2023-04-24T15:57:36;8.65;;;2.13;;
25301;SDS011;13243;50.888;4.724;2023-04-24T16:02:38;3.95;;;2.10;;
25301;SDS011;13243;50.888;4.724;2023-04-24T16:07:41;3.00;;;2.03;;
25301;SDS011;13243;50.888;4.724;2023-04-24T16:12:43;5.65;;;2.00;;
25301;SDS011;13243;50.888;4.724;2023-04-24T16:17:45;4.35;;;2.20;;
25301;SDS011;13243;50.888;4.724;2023-04-24T16:22:47;6.20;;;2.40;;
25301;SDS011;13243;50.888;4.724;2023-04-24T16:27:49;3.42;;;2.17;;
25301;SDS011;13243;50.888;4.724;2023-04-24T16:32:51;4.88;;;2.60;;
25301;SDS011;13243;50.888;4.724;2023-04-24T16:37:53;6.25;;;2.17;;
25301;SDS011;13243;50.888;4.724;2023-04-24T16:42:55;5.28;;;1.90;;
25301;SDS011;13243;50.888;4.724;2023-04-24T16:47:57;3.65;;;1.95;;
25301;SDS011;13243;50.888;4.724;2023-04-24T16:52:59;6.18;;;2.17;;
25301;SDS011;13243;50.888;4.724;2023-04-24T16:58:01;4.80;;;2.42;;
25301;SDS011;13243;50.888;4.724;2023-04-24T17:03:03;4.63;;;2.13;;
25301;SDS011;13243;50.888;4.724;2023-04-24T17:08:05;4.53;;;1.70;;
25301;SDS011;13243;50.888;4.724;2023-04-24T17:13:07;5.55;;;1.95;;
25301;SDS011;13243;50.888;4.724;2023-04-24T17:18:09;4.40;;;1.98;;
25301;SDS011;13243;50.888;4.724;2023-04-24T17:23:11;3.28;;;2.10;;
25301;SDS011;13243;50.888;4.724;2023-04-24T17:28:26;2.45;;;1.63;;
25301;SDS011;13243;50.888;4.724;2023-04-24T17:33:33;3.35;;;1.70;;
25301;SDS011;13243;50.888;4.724;2023-04-24T17:38:35;6.57;;;1.92;;
25301;SDS011;13243;50.888;4.724;2023-04-24T17:43:36;6.80;;;1.90;;
25301;SDS011;13243;50.888;4.724;2023-04-24T17:48:38;3.40;;;1.90;;
25301;SDS011;13243;50.888;4.724;2023-04-24T17:53:40;2.33;;;1.38;;
25301;SDS011;13243;50.888;4.724;2023-04-24T17:58:42;4.20;;;1.80;;
25301;SDS011;13243;50.888;4.724;2023-04-24T18:03:44;3.00;;;1.50;;
25301;SDS011;13243;50.888;4.724;2023-04-24T18:08:47;3.00;;;1.63;;
25301;SDS011;13243;50.888;4.724;2023-04-24T18:13:49;5.80;;;2.10;;
25301;SDS011;13243;50.888;4.724;2023-04-24T18:18:51;5.25;;;1.95;;
25301;SDS011;13243;50.888;4.724;2023-04-24T18:23:54;7.10;;;2.00;;
25301;SDS011;13243;50.888;4.724;2023-04-24T18:28:56;6.25;;;2.33;;
25301;SDS011;13243;50.888;4.724;2023-04-24T18:33:59;8.48;;;3.10;;
25301;SDS011;13243;50.888;4.724;2023-04-24T18:39:01;5.30;;;2.60;;
25301;SDS011;13243;50.888;4.724;2023-04-24T18:44:02;5.47;;;2.70;;
25301;SDS011;13243;50.888;4.724;2023-04-24T18:49:04;4.18;;;2.20;;
25301;SDS011;13243;50.888;4.724;2023-04-24T18:54:07;5.45;;;2.53;;
25301;SDS011;13243;50.888;4.724;2023-04-24T18:59:09;5.57;;;3.35;;
25301;SDS011;13243;50.888;4.724;2023-04-24T19:04:10;6.43;;;2.92;;
25301;SDS011;13243;50.888;4.724;2023-04-24T19:09:13;8.52;;;3.65;;
25301;SDS011;13243;50.888;4.724;2023-04-24T19:14:16;9.82;;;3.78;;
25301;SDS011;13243;50.888;4.724;2023-04-24T19:19:19;7.40;;;3.33;;
25301;SDS011;13243;50.888;4.724;2023-04-24T19:24:22;10.48;;;3.25;;
25301;SDS011;13243;50.888;4.724;2023-04-24T19:29:25;10.00;;;4.10;;
25301;SDS011;13243;50.888;4.724;2023-04-24T19:34:27;7.45;;;3.75;;
25301;SDS011;13243;50.888;4.724;2023-04-24T19:39:30;9.43;;;3.15;;
25301;SDS011;13243;50.888;4.724;2023-04-24T19:44:32;8.10;;;3.35;;
25301;SDS011;13243;50.888;4.724;2023-04-24T19:49:34;8.20;;;3.63;;
25301;SDS011;13243;50.888;4.724;2023-04-24T19:54:36;12.15;;;3.85;;
25301;SDS011;13243;50.888;4.724;2023-04-24T19:59:38;10.80;;;3.42;;
25301;SDS011;13243;50.888;4.724;2023-04-24T20:04:40;13.77;;;4.00;;
25301;SDS011;13243;50.888;4.724;2023-04-24T20:09:42;6.45;;;3.35;;
25301;SDS011;13243;50.888;4.724;2023-04-24T20:14:45;15.27;;;3.13;;
25301;SDS011;13243;50.888;4.724;2023-04-24T20:19:47;11.50;;;2.90;;
25301;SDS011;13243;50.888;4.724;2023-04-24T20:24:49;7.28;;;2.97;;
25301;SDS011;13243;50.888;4.724;2023-04-24T20:29:51;7.53;;;3.13;;
25301;SDS011;13243;50.888;4.724;2023-04-24T20:34:54;6.70;;;2.90;;
25301;SDS011;13243;50.888;4.724;2023-04-24T20:39:56;9.32;;;3.40;;
25301;SDS011;13243;50.888;4.724;2023-04-24T20:45:01;6.95;;;2.70;;
25301;SDS011;13243;50.888;4.724;2023-04-24T20:50:03;9.57;;;3.30;;
25301;SDS011;13243;50.888;4.724;2023-04-24T20:55:07;8.65;;;2.72;;
25301;SDS011;13243;50.888;4.724;2023-04-24T21:00:09;12.73;;;3.30;;
25301;SDS011;13243;50.888;4.724;2023-04-24T21:05:13;9.15;;;3.10;;
25301;SDS011;13243;50.888;4.724;2023-04-24T21:10:14;8.88;;;2.85;;
25301;SDS011;13243;50.888;4.724;2023-04-24T21:15:16;14.73;;;3.05;;
25301;SDS011;13243;50.888;4.724;2023-04-24T21:20:19;15.73;;;3.15;;
25301;SDS011;13243;50.888;4.724;2023-04-24T21:25:20;4.78;;;2.55;;
25301;SDS011;13243;50.888;4.724;2023-04-24T21:30:23;9.50;;;3.00;;
25301;SDS011;13243;50.888;4.724;2023-04-24T21:35:25;5.93;;;2.80;;
25301;SDS011;13243;50.888;4.724;2023-04-24T21:40:27;12.20;;;3.15;;
25301;SDS011;13243;50.888;4.724;2023-04-24T21:45:29;8.00;;;3.42;;
25301;SDS011;13243;50.888;4.724;2023-04-24T21:50:31;9.13;;;2.97;;
25301;SDS011;13243;50.888;4.724;2023-04-24T21:55:33;13.98;;;3.67;;
25301;SDS011;13243;50.888;4.724;2023-04-24T22:00:35;7.70;;;2.92;;
25301;SDS011;13243;50.888;4.724;2023-04-24T22:05:37;8.82;;;3.35;;
25301;SDS011;13243;50.888;4.724;2023-04-24T22:10:39;13.13;;;4.03;;
25301;SDS011;13243;50.888;4.724;2023-04-24T22:15:40;11.10;;;3.25;;
25301;SDS011;13243;50.888;4.724;2023-04-24T22:20:43;9.05;;;3.67;;
25301;SDS011;13243;50.888;4.724;2023-04-24T22:25:45;13.57;;;3.60;;
25301;SDS011;13243;50.888;4.724;2023-04-24T22:30:47;12.43;;;3.97;;
25301;SDS011;13243;50.888;4.724;2023-04-24T22:35:48;9.07;;;3.55;;
25301;SDS011;13243;50.888;4.724;2023-04-24T22:40:50;12.27;;;4.00;;
25301;SDS011;13243;50.888;4.724;2023-04-24T22:45:52;12.57;;;3.72;;
25301;SDS011;13243;50.888;4.724;2023-04-24T22:50:54;11.45;;;3.28;;
25301;SDS011;13243;50.888;4.724;2023-04-24T22:55:56;14.10;;;4.10;;
25301;SDS011;13243;50.888;4.724;2023-04-24T23:00:58;13.43;;;4.10;;
25301;SDS011;13243;50.888;4.724;2023-04-24T23:06:00;12.85;;;4.05;;
25301;SDS011;13243;50.888;4.724;2023-04-24T23:11:02;9.32;;;3.72;;
25301;SDS011;13243;50.888;4.724;2023-04-24T23:16:04;12.05;;;4.05;;
25301;SDS011;13243;50.888;4.724;2023-04-24T23:21:06;11.57;;;4.25;;
25301;SDS011;13243;50.888;4.724;2023-04-24T23:26:08;11.45;;;4.20;;
25301;SDS011;13243;50.888;4.724;2023-04-24T23:31:10;13.57;;;4.00;;
25301;SDS011;13243;50.888;4.724;2023-04-24T23:36:11;11.80;;;3.80;;
25301;SDS011;13243;50.888;4.724;2023-04-24T23:41:15;11.10;;;4.53;;
25301;SDS011;13243;50.888;4.724;2023-04-24T23:46:17;15.10;;;4.20;;
25301;SDS011;13243;50.888;4.724;2023-04-24T23:51:19;19.60;;;4.88;;
25301;SDS011;13243;50.888;4.724;2023-04-24T23:56:21;16.27;;;4.72;;
